createdAt,value
2023-02-08T00:00:10.459Z,40.90
2023-02-08T00:02:40.266Z,40.90
2023-02-08T00:05:08.958Z,42.40
2023-02-08T00:07:37.243Z,42.20
2023-02-08T00:10:07.004Z,42.30
2023-02-08T00:12:35.394Z,41.60
2023-02-08T00:15:03.662Z,41.80
2023-02-08T00:17:32.325Z,42.30
2023-02-08T00:20:01.848Z,41.10
2023-02-08T00:22:29.994Z,41.20
2023-02-08T00:24:58.194Z,37.10
2023-02-08T00:27:26.259Z,40.40
2023-02-08T00:29:54.459Z,42.30
2023-02-08T00:32:22.611Z,44.60
2023-02-08T00:34:51.653Z,45.50
2023-02-08T00:37:21.738Z,45.40
2023-02-08T00:39:51.280Z,44.30
2023-02-08T00:42:19.502Z,44.50
2023-02-08T00:44:47.922Z,46.80
2023-02-08T00:47:16.061Z,46.10
2023-02-08T00:49:44.231Z,41.60
2023-02-08T00:52:12.454Z,43.50
2023-02-08T00:54:42.418Z,43.30
2023-02-08T00:57:10.745Z,45.40
2023-02-08T00:59:38.846Z,46.20
2023-02-08T01:02:07.538Z,47.90
2023-02-08T01:04:35.746Z,47.60
2023-02-08T01:07:03.989Z,47.60
2023-02-08T01:09:32.646Z,48.90
2023-02-08T01:12:02.476Z,48.80
2023-02-08T01:14:31.182Z,47.60
2023-02-08T01:16:59.905Z,47.30
2023-02-08T01:19:28.112Z,48.70
2023-02-08T01:21:56.422Z,48.20
2023-02-08T01:24:25.103Z,48.40
2023-02-08T01:26:53.513Z,48.20
2023-02-08T01:29:22.985Z,48.20
2023-02-08T01:31:51.430Z,49.80
2023-02-08T01:34:19.581Z,49.40
2023-02-08T01:36:48.360Z,49.50
2023-02-08T01:39:16.530Z,48.60
2023-02-08T01:41:47.341Z,47.80
2023-02-08T01:45:02.080Z,49.70
2023-02-08T01:47:33.086Z,51.80
2023-02-08T01:50:01.771Z,52.00
2023-02-08T01:52:30.179Z,50.90
2023-02-08T01:55:01.565Z,51.20
2023-02-08T01:57:30.490Z,51.60
2023-02-08T02:00:02.868Z,52.90
2023-02-08T02:02:45.024Z,52.70
2023-02-08T02:05:14.451Z,52.00
2023-02-08T02:07:42.685Z,51.00
2023-02-08T02:10:16.150Z,50.30
2023-02-08T02:12:45.892Z,50.30
2023-02-08T02:15:15.645Z,50.50
2023-02-08T02:17:45.374Z,50.40
2023-02-08T02:20:20.093Z,48.90
2023-02-08T02:23:14.840Z,49.30
2023-02-08T02:26:18.437Z,49.20
2023-02-08T02:29:16.309Z,49.00
2023-02-08T02:32:03.370Z,49.10
2023-02-08T02:34:40.448Z,49.20
2023-02-08T02:37:16.677Z,50.00
2023-02-08T02:39:53.775Z,50.10
2023-02-08T02:42:45.946Z,50.80
2023-02-08T02:45:22.623Z,49.80
2023-02-08T02:47:58.392Z,49.90
2023-02-08T02:50:33.987Z,49.30
2023-02-08T02:53:07.129Z,49.20
2023-02-08T02:55:41.340Z,49.20
2023-02-08T02:58:12.219Z,50.00
2023-02-08T03:00:40.808Z,50.40
2023-02-08T03:03:21.287Z,53.60
2023-02-08T03:05:49.814Z,52.40
2023-02-08T03:08:33.925Z,52.30
2023-02-08T03:11:16.905Z,52.70
2023-02-08T03:14:10.629Z,51.50
2023-02-08T03:16:55.069Z,51.40
2023-02-08T03:19:32.518Z,50.80
2023-02-08T03:22:06.712Z,51.00
2023-02-08T03:24:43.617Z,50.90
2023-02-08T03:27:18.970Z,50.50
2023-02-08T03:29:56.582Z,52.30
2023-02-08T03:32:30.033Z,58.00
2023-02-08T03:35:04.878Z,58.50
2023-02-08T03:37:38.729Z,57.60
2023-02-08T03:40:12.569Z,57.50
2023-02-08T03:42:43.007Z,59.60
2023-02-08T03:45:17.133Z,57.60
2023-02-08T03:47:47.913Z,58.10
2023-02-08T03:50:20.213Z,57.20
2023-02-08T03:52:50.333Z,55.30
2023-02-08T03:55:21.577Z,55.10
2023-02-08T03:57:53.963Z,53.70
2023-02-08T04:00:22.927Z,59.00
2023-02-08T04:02:57.475Z,56.80
2023-02-08T04:05:27.040Z,56.40
2023-02-08T04:07:55.132Z,55.60
2023-02-08T04:10:23.391Z,55.20
2023-02-08T04:12:51.938Z,54.30
2023-02-08T04:15:20.255Z,54.40
2023-02-08T04:17:48.363Z,56.80
2023-02-08T04:20:16.536Z,59.80
2023-02-08T04:22:46.108Z,61.00
2023-02-08T04:25:15.729Z,59.50
2023-02-08T04:27:43.835Z,57.30
2023-02-08T04:30:13.681Z,55.50
2023-02-08T04:32:41.796Z,57.60
2023-02-08T04:35:10.182Z,62.90
2023-02-08T04:37:38.970Z,64.90
2023-02-08T04:40:10.219Z,64.80
2023-02-08T04:42:38.364Z,60.90
2023-02-08T04:45:06.917Z,58.50
2023-02-08T04:47:35.120Z,60.20
2023-02-08T04:50:03.453Z,60.40
2023-02-08T04:52:31.718Z,58.60
2023-02-08T04:54:59.797Z,57.40
2023-02-08T04:57:29.354Z,57.00
2023-02-08T04:59:59.997Z,58.80
2023-02-08T05:02:28.528Z,61.90
2023-02-08T05:04:56.913Z,62.30
2023-02-08T05:07:25.107Z,60.10
2023-02-08T05:09:53.427Z,58.50
2023-02-08T05:12:21.603Z,57.30
2023-02-08T05:14:51.361Z,57.30
2023-02-08T05:17:19.612Z,59.10
2023-02-08T05:19:48.077Z,62.40
2023-02-08T05:22:17.085Z,63.00
2023-02-08T05:24:45.660Z,59.70
2023-02-08T05:27:13.771Z,60.30
2023-02-08T05:29:43.055Z,59.10
2023-02-08T05:32:12.801Z,58.30
2023-02-08T05:34:41.102Z,56.30
2023-02-08T05:37:09.261Z,55.30
2023-02-08T05:39:37.625Z,54.50
2023-02-08T05:42:05.912Z,54.80
2023-02-08T05:44:34.274Z,54.30
2023-02-08T05:47:04.071Z,59.10
2023-02-08T05:49:33.628Z,57.80
2023-02-08T05:52:01.839Z,57.00
2023-02-08T05:54:29.948Z,56.30
2023-02-08T05:56:58.151Z,53.50
2023-02-08T05:59:26.231Z,57.50
2023-02-08T06:01:54.405Z,56.80
2023-02-08T06:04:22.694Z,56.70
2023-02-08T06:06:52.422Z,56.00
2023-02-08T06:09:20.678Z,57.30
2023-02-08T06:11:48.947Z,56.60
2023-02-08T06:14:17.379Z,55.60
2023-02-08T06:16:45.594Z,55.40
2023-02-08T06:19:14.445Z,56.10
2023-02-08T06:21:42.627Z,55.50
2023-02-08T06:24:13.699Z,53.30
2023-02-08T06:26:41.894Z,56.70
2023-02-08T06:29:10.129Z,55.70
2023-02-08T06:31:38.392Z,54.80
2023-02-08T06:34:06.629Z,54.00
2023-02-08T06:36:34.995Z,53.70
2023-02-08T06:39:03.284Z,53.70
2023-02-08T06:41:32.766Z,53.40
2023-02-08T06:44:01.592Z,52.70
2023-02-08T06:46:30.271Z,53.40
2023-02-08T06:49:00.447Z,52.50
2023-02-08T06:51:29.013Z,53.90
2023-02-08T06:53:57.285Z,54.00
2023-02-08T06:56:25.466Z,54.80
2023-02-08T06:58:55.147Z,59.40
2023-02-08T07:01:23.620Z,57.60
2023-02-08T07:03:52.114Z,56.40
2023-02-08T07:06:21.369Z,56.10
2023-02-08T07:08:49.566Z,57.70
2023-02-08T07:11:20.361Z,60.20
2023-02-08T07:13:49.013Z,59.90
2023-02-08T07:16:19.862Z,58.60
2023-02-08T07:18:48.323Z,58.40
2023-02-08T07:21:16.986Z,60.70
2023-02-08T07:23:45.449Z,59.20
2023-02-08T07:26:15.712Z,57.80
2023-02-08T07:28:44.161Z,56.40
2023-02-08T07:31:15.327Z,54.20
2023-02-08T07:33:45.454Z,56.10
2023-02-08T07:36:13.642Z,55.60
2023-02-08T07:38:41.758Z,54.70
2023-02-08T07:41:12.098Z,55.10
2023-02-08T07:43:42.042Z,58.50
2023-02-08T07:46:11.658Z,59.30
2023-02-08T07:48:40.601Z,59.50
2023-02-08T07:51:10.689Z,58.80
2023-02-08T07:53:39.587Z,59.60
2023-02-08T07:56:08.013Z,58.40
2023-02-08T07:58:36.129Z,57.20
2023-02-08T08:01:19.608Z,56.20
2023-02-08T08:03:50.125Z,56.60
2023-02-08T08:06:20.002Z,55.20
2023-02-08T08:08:48.199Z,55.00
2023-02-08T08:11:17.385Z,55.70
2023-02-08T08:13:45.929Z,54.70
2023-02-08T08:16:14.616Z,53.00
2023-02-08T08:18:42.741Z,54.50
2023-02-08T08:21:11.062Z,53.90
2023-02-08T08:23:41.097Z,55.30
2023-02-08T08:26:11.060Z,53.90
2023-02-08T08:28:39.610Z,55.10
2023-02-08T08:31:12.274Z,55.00
2023-02-08T08:33:40.649Z,55.60
2023-02-08T08:36:09.736Z,55.40
2023-02-08T08:38:39.463Z,55.00
2023-02-08T08:41:15.268Z,54.90
2023-02-08T08:43:43.388Z,55.00
2023-02-08T08:46:11.754Z,55.80
2023-02-08T08:48:40.035Z,55.90
2023-02-08T08:51:09.739Z,55.40
2023-02-08T08:53:38.273Z,55.70
2023-02-08T08:56:07.190Z,56.20
2023-02-08T08:58:36.697Z,57.40
2023-02-08T09:01:05.502Z,56.60
2023-02-08T09:03:33.780Z,57.20
2023-02-08T09:06:01.975Z,56.10
2023-02-08T09:08:30.049Z,56.40
2023-02-08T09:10:58.143Z,55.70
2023-02-08T09:13:26.359Z,54.80
2023-02-08T09:15:55.915Z,56.50
2023-02-08T09:18:24.091Z,56.10
2023-02-08T09:20:52.330Z,55.70
2023-02-08T09:23:20.452Z,57.30
2023-02-08T09:25:50.057Z,55.30
2023-02-08T09:28:18.295Z,55.10
2023-02-08T09:30:46.465Z,55.20
2023-02-08T09:33:16.099Z,56.70
2023-02-08T09:35:44.473Z,55.60
2023-02-08T09:38:12.918Z,55.40
2023-02-08T09:40:49.131Z,56.10
2023-02-08T09:43:23.901Z,55.00
2023-02-08T09:46:00.101Z,55.90
2023-02-08T09:48:34.952Z,57.30
2023-02-08T09:51:10.041Z,55.20
2023-02-08T09:53:44.876Z,55.10
2023-02-08T09:56:16.732Z,54.90
2023-02-08T09:58:49.554Z,54.90
2023-02-08T10:01:22.248Z,55.20
2023-02-08T10:03:54.579Z,55.40
2023-02-08T10:06:23.181Z,56.60
2023-02-08T10:08:53.861Z,55.20
2023-02-08T10:11:50.361Z,55.20
2023-02-08T10:14:44.699Z,54.70
2023-02-08T10:17:29.740Z,54.00
2023-02-08T10:20:06.833Z,53.40
2023-02-08T10:22:45.490Z,52.50
2023-02-08T10:25:26.580Z,53.30
2023-02-08T10:28:11.695Z,51.70
2023-02-08T10:30:50.142Z,51.80
2023-02-08T10:33:21.788Z,51.90
2023-02-08T10:35:52.758Z,51.30
2023-02-08T10:38:45.366Z,50.00
2023-02-08T10:41:19.726Z,49.90
2023-02-08T10:43:53.241Z,49.40
2023-02-08T10:46:27.058Z,48.30
2023-02-08T10:49:04.759Z,50.00
2023-02-08T10:51:34.439Z,50.90
2023-02-08T10:54:02.661Z,49.90
2023-02-08T10:56:47.693Z,48.00
2023-02-08T10:59:20.043Z,48.20
2023-02-08T11:01:50.920Z,47.90
2023-02-08T11:04:19.767Z,48.60
2023-02-08T11:06:50.731Z,48.50
2023-02-08T11:09:29.130Z,49.80
2023-02-08T11:11:57.758Z,47.40
2023-02-08T11:14:45.560Z,45.60
2023-02-08T11:17:27.461Z,46.90
2023-02-08T11:19:55.917Z,51.70
2023-02-08T11:22:28.969Z,44.80
2023-02-08T11:25:00.129Z,44.00
2023-02-08T11:27:34.863Z,43.90
2023-02-08T11:30:21.601Z,46.10
2023-02-08T11:33:09.855Z,45.80
2023-02-08T11:35:38.223Z,41.80
2023-02-08T11:38:09.427Z,41.30
2023-02-08T11:40:43.865Z,43.20
2023-02-08T11:43:22.503Z,44.80
2023-02-08T11:45:51.507Z,45.90
2023-02-08T11:48:25.597Z,43.30
2023-02-08T11:50:57.248Z,43.80
2023-02-08T11:53:31.400Z,42.30
2023-02-08T11:56:17.825Z,42.10
2023-02-08T11:59:06.750Z,40.90
2023-02-08T12:01:36.451Z,42.90
2023-02-08T12:04:07.749Z,41.20
2023-02-08T12:07:05.919Z,39.70
2023-02-08T12:10:10.036Z,38.50
2023-02-08T12:12:51.237Z,39.50
2023-02-08T12:15:27.477Z,40.20
2023-02-08T12:18:21.635Z,37.80
2023-02-08T12:20:54.383Z,37.40
2023-02-08T12:23:49.194Z,37.30
2023-02-08T12:26:33.585Z,37.80
2023-02-08T12:29:18.434Z,35.30
2023-02-08T12:32:15.566Z,35.90
2023-02-08T12:34:57.098Z,34.60
2023-02-08T12:37:53.293Z,34.80
2023-02-08T12:40:50.875Z,35.70
2023-02-08T12:43:33.141Z,35.00
2023-02-08T12:46:12.496Z,35.80
2023-02-08T12:49:07.733Z,34.10
2023-02-08T12:51:44.069Z,34.50
2023-02-08T12:54:16.271Z,34.60
2023-02-08T12:57:01.529Z,35.00
2023-02-08T12:59:36.859Z,34.00
2023-02-08T13:02:13.190Z,31.70
2023-02-08T13:04:46.131Z,34.70
2023-02-08T13:07:19.249Z,34.10
2023-02-08T13:09:53.137Z,31.00
2023-02-08T13:12:25.192Z,30.20
2023-02-08T13:15:01.890Z,32.40
2023-02-08T13:17:43.557Z,29.10
2023-02-08T13:20:24.401Z,29.90
2023-02-08T13:22:56.154Z,31.50
2023-02-08T13:25:30.996Z,30.20
2023-02-08T13:28:02.483Z,29.70
2023-02-08T13:30:33.782Z,30.20
2023-02-08T13:33:09.944Z,32.50
2023-02-08T13:35:40.023Z,30.80
2023-02-08T13:38:20.043Z,31.80
2023-02-08T13:40:48.171Z,31.00
2023-02-08T13:43:35.197Z,30.30
2023-02-08T13:46:06.686Z,31.30
2023-02-08T13:48:50.545Z,29.30
2023-02-08T13:51:59.696Z,29.80
2023-02-08T13:54:28.078Z,28.40
2023-02-08T13:56:56.661Z,29.30
2023-02-08T13:59:36.670Z,30.50
2023-02-08T14:02:23.660Z,29.50
2023-02-08T14:04:53.286Z,30.50
2023-02-08T14:07:28.766Z,31.90
2023-02-08T14:10:09.647Z,31.70
2023-02-08T14:12:43.544Z,32.50
2023-02-08T14:15:34.592Z,32.10
2023-02-08T14:18:04.994Z,30.90
2023-02-08T14:20:39.810Z,31.70
2023-02-08T14:23:22.028Z,31.80
2023-02-08T14:25:52.550Z,31.80
2023-02-08T14:28:30.401Z,31.10
2023-02-08T14:31:01.743Z,31.90
2023-02-08T14:33:34.672Z,31.70
2023-02-08T14:36:06.067Z,31.40
2023-02-08T14:38:51.625Z,31.20
2023-02-08T14:41:44.608Z,31.90
2023-02-08T14:44:55.581Z,31.00
2023-02-08T14:48:04.146Z,32.70
2023-02-08T14:50:42.252Z,32.00
2023-02-08T14:53:28.310Z,31.30
2023-02-08T14:56:03.737Z,32.20
2023-02-08T14:58:35.838Z,30.40
2023-02-08T15:01:08.279Z,31.80
2023-02-08T15:03:37.142Z,31.50
2023-02-08T15:06:36.824Z,32.60
2023-02-08T15:09:06.201Z,33.00
2023-02-08T15:11:36.562Z,32.50
2023-02-08T15:14:06.585Z,32.60
2023-02-08T15:16:37.672Z,32.30
2023-02-08T15:19:08.454Z,32.20
2023-02-08T15:21:38.860Z,33.10
2023-02-08T15:24:16.285Z,33.50
2023-02-08T15:26:48.330Z,31.20
2023-02-08T15:29:24.616Z,31.20
2023-02-08T15:31:55.527Z,32.10
2023-02-08T15:34:26.116Z,33.60
2023-02-08T15:36:57.701Z,34.10
2023-02-08T15:39:38.548Z,33.20
2023-02-08T15:42:07.569Z,33.30
2023-02-08T15:44:36.307Z,33.10
2023-02-08T15:47:06.625Z,31.80
2023-02-08T15:49:37.800Z,32.90
2023-02-08T15:52:08.900Z,35.40
2023-02-08T15:54:37.099Z,33.90
2023-02-08T15:57:09.634Z,36.00
2023-02-08T15:59:40.538Z,36.80
2023-02-08T16:02:23.028Z,33.90
2023-02-08T16:04:51.431Z,33.90
2023-02-08T16:07:26.651Z,33.40
2023-02-08T16:09:55.442Z,33.60
2023-02-08T16:12:25.798Z,34.50
2023-02-08T16:14:56.738Z,36.70
2023-02-08T16:17:37.433Z,36.80
2023-02-08T16:20:23.133Z,36.70
2023-02-08T16:23:01.500Z,36.50
2023-02-08T16:25:45.363Z,36.90
2023-02-08T16:28:27.838Z,36.90
2023-02-08T16:30:57.362Z,36.90
2023-02-08T16:33:26.234Z,34.50
2023-02-08T16:36:01.658Z,36.20
2023-02-08T16:38:34.814Z,36.90
2023-02-08T16:41:13.088Z,36.70
2023-02-08T16:43:44.250Z,36.30
2023-02-08T16:46:26.792Z,35.90
2023-02-08T16:48:56.255Z,37.00
2023-02-08T16:51:27.146Z,37.00
2023-02-08T16:54:02.438Z,36.10
2023-02-08T16:56:30.734Z,37.00
2023-02-08T16:58:58.981Z,37.00
2023-02-08T17:01:28.634Z,37.30
2023-02-08T17:03:56.885Z,37.20
2023-02-08T17:06:30.638Z,37.90
2023-02-08T17:09:01.853Z,37.50
2023-02-08T17:11:30.421Z,37.60
2023-02-08T17:13:59.056Z,38.40
2023-02-08T17:16:29.470Z,37.90
2023-02-08T17:18:57.939Z,38.00
2023-02-08T17:21:26.181Z,38.00
2023-02-08T17:23:54.614Z,37.90
2023-02-08T17:26:27.709Z,37.40
2023-02-08T17:28:56.766Z,37.20
2023-02-08T17:31:25.173Z,37.40
2023-02-08T17:33:53.413Z,37.50
2023-02-08T17:36:21.528Z,37.20
2023-02-08T17:38:49.648Z,37.00
2023-02-08T17:41:20.185Z,37.00
2023-02-08T17:43:52.148Z,36.50
2023-02-08T17:46:22.490Z,36.40
2023-02-08T17:48:50.673Z,36.30
2023-02-08T17:51:21.146Z,36.20
2023-02-08T17:53:49.348Z,36.70
2023-02-08T17:56:20.058Z,36.00
2023-02-08T17:58:53.595Z,36.30
2023-02-08T18:01:25.260Z,36.20
2023-02-08T18:03:54.265Z,36.00
2023-02-08T18:06:25.091Z,35.60
2023-02-08T18:08:53.766Z,35.70
2023-02-08T18:11:23.426Z,35.60
2023-02-08T18:13:54.739Z,35.50
2023-02-08T18:16:24.450Z,35.40
2023-02-08T18:18:52.972Z,36.10
2023-02-08T18:21:24.406Z,35.70
2023-02-08T18:23:52.936Z,35.90
2023-02-08T18:26:22.361Z,35.30
2023-02-08T18:28:53.337Z,35.80
2023-02-08T18:31:22.141Z,35.90
2023-02-08T18:33:51.157Z,36.30
2023-02-08T18:36:20.780Z,36.60
2023-02-08T18:38:51.395Z,36.90
2023-02-08T18:41:21.560Z,37.20
2023-02-08T18:43:51.183Z,38.00
2023-02-08T18:46:23.053Z,38.10
2023-02-08T18:48:51.760Z,38.00
2023-02-08T18:51:21.336Z,37.30
2023-02-08T18:53:51.533Z,37.30
2023-02-08T18:56:24.029Z,37.70
2023-02-08T18:58:52.840Z,38.40
2023-02-08T19:01:24.118Z,38.10
2023-02-08T19:03:52.908Z,38.20
2023-02-08T19:06:24.665Z,38.30
2023-02-08T19:08:54.868Z,38.70
2023-02-08T19:11:25.365Z,39.30
2023-02-08T19:13:55.875Z,39.20
2023-02-08T19:16:27.551Z,39.70
2023-02-08T19:18:57.629Z,39.70
2023-02-08T19:21:25.731Z,40.10
2023-02-08T19:23:54.599Z,40.60
2023-02-08T19:26:24.733Z,40.00
2023-02-08T19:28:54.387Z,40.10
2023-02-08T19:31:25.803Z,40.30
2023-02-08T19:33:58.448Z,40.70
2023-02-08T19:36:28.508Z,41.20
2023-02-08T19:38:57.713Z,41.40
2023-02-08T19:41:28.519Z,41.70
2023-02-08T19:43:56.735Z,40.70
2023-02-08T19:46:27.584Z,40.80
2023-02-08T19:49:00.094Z,42.40
2023-02-08T19:51:30.347Z,40.60
2023-02-08T19:53:58.565Z,40.80
2023-02-08T19:56:26.807Z,40.10
2023-02-08T19:58:55.375Z,39.90
2023-02-08T20:01:25.705Z,40.60
2023-02-08T20:03:55.073Z,39.80
2023-02-08T20:06:25.793Z,41.90
2023-02-08T20:08:54.802Z,42.20
2023-02-08T20:11:25.949Z,43.20
2023-02-08T20:13:54.698Z,43.70
2023-02-08T20:16:23.360Z,43.70
2023-02-08T20:18:53.142Z,42.70
2023-02-08T20:21:21.469Z,41.90
2023-02-08T20:23:50.196Z,41.70
2023-02-08T20:26:20.922Z,40.90
2023-02-08T20:28:51.307Z,40.70
2023-02-08T20:31:21.811Z,41.20
2023-02-08T20:33:50.728Z,41.10
2023-02-08T20:36:23.081Z,41.40
2023-02-08T20:38:53.299Z,41.70
2023-02-08T20:41:22.442Z,42.30
2023-02-08T20:43:51.230Z,41.40
2023-02-08T20:46:22.249Z,43.50
2023-02-08T20:48:51.366Z,42.90
2023-02-08T20:51:22.830Z,42.20
2023-02-08T20:53:51.968Z,42.10
2023-02-08T20:56:22.649Z,42.10
2023-02-08T20:58:51.262Z,43.20
2023-02-08T21:01:21.773Z,43.80
2023-02-08T21:03:50.621Z,44.00
2023-02-08T21:06:22.139Z,44.20
2023-02-08T21:08:52.043Z,43.30
2023-02-08T21:11:22.181Z,43.10
2023-02-08T21:13:50.929Z,43.10
2023-02-08T21:16:19.791Z,42.90
2023-02-08T21:18:48.220Z,42.60
2023-02-08T21:21:16.600Z,42.80
2023-02-08T21:23:47.488Z,43.80
2023-02-08T21:26:17.725Z,43.70
2023-02-08T21:28:46.265Z,44.40
2023-02-08T21:31:16.933Z,44.90
2023-02-08T21:33:45.839Z,45.20
2023-02-08T21:36:15.645Z,45.70
2023-02-08T21:38:45.630Z,45.90
2023-02-08T21:41:16.473Z,46.00
2023-02-08T21:43:44.842Z,46.10
2023-02-08T21:46:13.732Z,45.70
2023-02-08T21:48:59.182Z,45.50
2023-02-08T21:51:45.088Z,45.50
2023-02-08T21:54:34.570Z,47.00
2023-02-08T21:57:04.103Z,47.50
2023-02-08T21:59:36.615Z,47.90
2023-02-08T22:02:06.727Z,47.40
2023-02-08T22:04:35.374Z,48.90
2023-02-08T22:07:04.724Z,47.30
2023-02-08T22:09:35.945Z,47.00
2023-02-08T22:12:04.080Z,46.40
2023-02-08T22:14:35.432Z,45.70
2023-02-08T22:17:03.910Z,47.10
2023-02-08T22:19:32.087Z,46.60
2023-02-08T22:22:00.332Z,45.30
2023-02-08T22:24:28.467Z,45.80
2023-02-08T22:26:57.961Z,45.40
2023-02-08T22:29:26.148Z,46.10
2023-02-08T22:31:54.565Z,45.70
2023-02-08T22:34:22.757Z,46.00
2023-02-08T22:36:50.873Z,46.60
2023-02-08T22:39:19.014Z,47.50
2023-02-08T22:41:47.197Z,45.40
2023-02-08T22:44:16.904Z,45.30
2023-02-08T22:46:45.199Z,45.10
2023-02-08T22:49:13.418Z,44.80
2023-02-08T22:51:41.505Z,44.80
2023-02-08T22:54:09.761Z,44.90
2023-02-08T22:56:38.061Z,44.30
2023-02-08T22:59:06.211Z,45.40
2023-02-08T23:01:35.762Z,44.60
2023-02-08T23:04:04.034Z,44.70
2023-02-08T23:06:32.278Z,45.00
2023-02-08T23:09:00.558Z,45.60
2023-02-08T23:11:28.851Z,47.10
2023-02-08T23:13:56.980Z,47.50
2023-02-08T23:16:25.665Z,46.80
2023-02-08T23:18:55.204Z,46.50
2023-02-08T23:21:23.387Z,45.90
2023-02-08T23:23:51.520Z,45.80
2023-02-08T23:26:21.377Z,45.80
2023-02-08T23:28:51.412Z,46.70
2023-02-08T23:31:20.983Z,46.00
2023-02-08T23:33:49.718Z,46.30
2023-02-08T23:36:22.591Z,52.00
2023-02-08T23:38:51.194Z,54.60
2023-02-08T23:41:21.904Z,56.10
2023-02-08T23:43:51.091Z,54.10
2023-02-08T23:46:21.567Z,52.70
2023-02-08T23:48:49.881Z,51.50
2023-02-08T23:51:21.459Z,49.80
2023-02-08T23:53:50.456Z,48.90
2023-02-08T23:56:20.131Z,48.40
2023-02-08T23:58:50.712Z,48.60
